Johnson Valley, California
Current Conditions -  °F | °C
As of 11:56 PM on Thursday 27 Nov 2014 (Local Time) from KNXP Reporting Station
Clear Clear  
Wind Chill: 49°   Ceiling: Unl
Heat Index: 49°   Visibility: 10mi
Dew Point: 16°   Wind: 0mph
Humidity: 27%   Direction: NA
Pressure: 30.18"   Gusts: NA
Location:  34.4465°N, 116.513°W
Report Text: KNXP 280756Z AUTO 00000KT 10SM CLR 09/M09 A3018 RMK AO2 SLP198 T00941089 402440061 $
Loading
Personal Weather Stations






























Interactive Weather Map New forecast layout! Learn more

10-Day Weather Forecast

Advertisements
Track Severe Weather on mobile